Ana Sayfa
METAR-TAF:

METAR-TAF

Havaalanları :

Tur, Mısır

Enlem: 28-14N, Boylam: 032-37E, yükseklik: 21 m

Güncel hava durumu gözlemi

Rapor saat 08:00 UTC de 1 saat ve 2 dakika önce yapıldı.
Rüzgar batı/kuzeybatıdan 15 kt
Sıcaklık 31°C
Nem 55%
Basınç 1004 hPa
Görüş mesafesi: 5000 m
Kum,

METAR: HETR 250800Z 30015KT 5000 SA NSC 31/21 Q1004

Saat: 11:02 (09:02 UTC)

Tahmin

Rapor saat 05:00 UTC de 4 saat ve 2 dakika önce yapıldı.
Ayın 25'si saat 06 UTC'den ayın 26'si saat 12 UTC'ye kadar geçerli Tahmin
Rüzgar kuzeybatıdan 12 kt ve 25 kt'a kadar ani rüzgarlar
Görüş mesafesi: 6000 m

TAF: HETR 250500Z 2506/2612 31012G25KT 6000 NSC

4.000'den fazla havaalanı için hava durumu gözlemleri ve tahminleri (METAR ve TAF raporları).

Kullanılabilir istasyonlar harita üzerinde sarı ve kırmızı noktalarla gösterilir.

İstasyonun adını görmek için fareyi noktanın üzerinde gezdirin.

Sonrasında hava gözlem ve tahminlerini görmek için tıklayın.

Haritayı değiştirmek için: yaklaştırmak için siyah artı işaretli yeşil düğmeye ve uzaklaştırmak için de eksi işaretli düğmeye hızla tıklayın; bitişik haritalar için yeşil okları kullanın.


METAR-TAF: